createdAt,value
2018-07-04T00:01:48.938Z,61.40
2018-07-04T00:04:42.295Z,62.30
2018-07-04T00:07:35.811Z,61.30
2018-07-04T00:10:29.463Z,61.70
2018-07-04T00:13:23.105Z,61.60
2018-07-04T00:16:16.801Z,62.20
2018-07-04T00:19:10.311Z,62.60
2018-07-04T00:24:53.046Z,63.80
2018-07-04T00:30:33.899Z,64.90
2018-07-04T00:33:27.419Z,64.20
2018-07-04T00:36:20.831Z,64.90
2018-07-04T00:39:14.348Z,64.30
2018-07-04T00:42:07.746Z,64.50
2018-07-04T00:45:01.230Z,64.20
2018-07-04T00:47:54.671Z,64.10
2018-07-04T00:50:48.184Z,63.20
2018-07-04T00:53:41.717Z,63.50
2018-07-04T00:56:35.213Z,63.00
2018-07-04T00:59:28.535Z,64.00
2018-07-04T01:02:21.915Z,63.60
2018-07-04T01:05:15.443Z,64.40
2018-07-04T01:08:08.759Z,64.30
2018-07-04T01:11:02.170Z,64.50
2018-07-04T01:13:56.089Z,65.10
2018-07-04T01:16:49.498Z,65.40
2018-07-04T01:19:43.021Z,65.70
2018-07-04T01:22:36.565Z,65.80
2018-07-04T01:25:30.198Z,65.60
2018-07-04T01:28:27.560Z,65.80
2018-07-04T01:31:21.088Z,66.70
2018-07-04T01:34:14.730Z,66.30
2018-07-04T01:37:08.274Z,65.40
2018-07-04T01:40:01.799Z,65.00
2018-07-04T01:42:55.503Z,65.00
2018-07-04T01:45:48.926Z,65.70
2018-07-04T01:48:42.393Z,66.10
2018-07-04T01:51:35.754Z,66.00
2018-07-04T01:54:29.168Z,65.60
2018-07-04T01:57:22.806Z,65.50
2018-07-04T02:00:16.102Z,66.00
2018-07-04T02:03:09.479Z,66.10
2018-07-04T02:06:03.090Z,65.80
2018-07-04T02:11:43.860Z,67.10
2018-07-04T02:14:37.348Z,66.70
2018-07-04T02:17:30.845Z,67.40
2018-07-04T02:20:24.345Z,66.70
2018-07-04T02:23:17.686Z,67.10
2018-07-04T02:26:11.142Z,67.30
2018-07-04T02:29:04.437Z,67.50
2018-07-04T02:31:58.137Z,66.90
2018-07-04T02:34:55.828Z,67.50
2018-07-04T02:37:49.429Z,67.30
2018-07-04T02:40:42.835Z,67.40
2018-07-04T02:43:36.214Z,67.30
2018-07-04T02:46:34.786Z,67.90
2018-07-04T02:49:28.291Z,68.50
2018-07-04T02:52:22.013Z,69.00
2018-07-04T02:55:15.380Z,69.10
2018-07-04T02:58:09.456Z,69.30
2018-07-04T03:01:02.948Z,68.90
2018-07-04T03:03:56.477Z,69.00
2018-07-04T03:06:50.004Z,69.30
2018-07-04T03:09:43.757Z,69.10
2018-07-04T03:12:37.416Z,69.60
2018-07-04T03:15:30.728Z,69.10
2018-07-04T03:18:24.247Z,69.70
2018-07-04T03:21:17.730Z,70.10
2018-07-04T03:24:11.006Z,69.60
2018-07-04T03:27:04.623Z,69.60
2018-07-04T03:29:58.301Z,69.70
2018-07-04T03:32:51.712Z,69.10
2018-07-04T03:35:45.918Z,69.40
2018-07-04T03:38:39.519Z,69.20
2018-07-04T03:41:32.763Z,69.50
2018-07-04T03:44:26.360Z,69.50
2018-07-04T03:47:20.192Z,69.20
2018-07-04T03:50:14.138Z,69.70
2018-07-04T03:53:07.421Z,70.00
2018-07-04T03:56:00.815Z,70.60
2018-07-04T03:58:54.337Z,70.40
2018-07-04T04:01:48.013Z,70.90
2018-07-04T04:04:41.422Z,71.20
2018-07-04T04:07:34.896Z,71.20
2018-07-04T04:10:28.384Z,71.50
2018-07-04T04:13:21.804Z,71.40
2018-07-04T04:16:15.079Z,71.20
2018-07-04T04:19:08.694Z,71.10
2018-07-04T04:22:02.345Z,71.00
2018-07-04T04:24:56.163Z,71.20
2018-07-04T04:27:50.024Z,72.10
2018-07-04T04:30:43.431Z,71.30
2018-07-04T04:33:36.826Z,72.30
2018-07-04T04:36:30.441Z,71.10
2018-07-04T04:39:25.181Z,71.80
2018-07-04T04:42:18.656Z,72.50
2018-07-04T04:45:12.498Z,72.30
2018-07-04T04:48:06.015Z,71.90
2018-07-04T04:50:59.419Z,70.80
2018-07-04T04:53:52.997Z,70.30
2018-07-04T04:56:46.797Z,69.10
2018-07-04T04:59:40.384Z,69.30
2018-07-04T05:02:34.220Z,69.10
2018-07-04T05:05:27.767Z,69.20
2018-07-04T05:08:21.413Z,68.00
2018-07-04T05:11:14.991Z,67.60
2018-07-04T05:14:08.665Z,68.70
2018-07-04T05:17:01.989Z,69.30
2018-07-04T05:19:55.501Z,70.20
2018-07-04T05:22:48.913Z,70.60
2018-07-04T05:25:42.182Z,70.90
2018-07-04T05:28:35.651Z,71.30
2018-07-04T05:31:29.174Z,71.80
2018-07-04T05:34:22.733Z,72.10
2018-07-04T05:37:16.074Z,72.00
2018-07-04T05:40:09.537Z,70.90
2018-07-04T05:43:04.045Z,70.50
2018-07-04T05:45:57.564Z,71.10
2018-07-04T05:48:50.946Z,69.80
2018-07-04T05:51:44.479Z,68.70
2018-07-04T05:54:37.843Z,68.50
2018-07-04T05:57:31.191Z,67.70
2018-07-04T06:00:24.672Z,68.10
2018-07-04T06:03:17.950Z,67.20
2018-07-04T06:06:11.502Z,66.60
2018-07-04T06:09:05.272Z,66.90
2018-07-04T06:11:58.916Z,65.40
2018-07-04T06:14:52.553Z,65.50
2018-07-04T06:17:46.982Z,65.10
2018-07-04T06:20:40.480Z,63.00
2018-07-04T06:23:33.988Z,64.00
2018-07-04T06:26:27.374Z,62.30
2018-07-04T06:29:20.936Z,63.00
2018-07-04T06:32:14.407Z,63.20
2018-07-04T06:35:07.760Z,64.60
2018-07-04T06:37:42.917Z,63.40
2018-07-04T06:40:17.701Z,62.50
2018-07-04T06:42:52.398Z,62.60
2018-07-04T06:45:27.270Z,62.10
2018-07-04T06:48:01.868Z,60.40
2018-07-04T06:50:36.460Z,60.30
2018-07-04T06:53:11.018Z,58.30
2018-07-04T06:58:20.779Z,58.80
2018-07-04T07:00:55.574Z,58.60
2018-07-04T07:03:49.066Z,58.80
2018-07-04T07:06:42.339Z,58.30
2018-07-04T07:09:35.786Z,59.30
2018-07-04T07:12:29.236Z,58.80
2018-07-04T07:15:22.594Z,56.00
2018-07-04T07:18:16.390Z,55.10
2018-07-04T07:21:09.970Z,51.40
2018-07-04T07:24:03.518Z,51.40
2018-07-04T07:26:56.930Z,52.20
2018-07-04T07:32:38.007Z,50.30
2018-07-04T07:35:31.351Z,52.50
2018-07-04T07:38:24.856Z,50.10
2018-07-04T07:41:18.340Z,51.30
2018-07-04T07:44:12.067Z,53.00
2018-07-04T07:47:05.599Z,52.70
2018-07-04T07:49:59.066Z,52.90
2018-07-04T07:52:52.737Z,53.40
2018-07-04T07:55:46.355Z,52.50
2018-07-04T07:58:39.942Z,51.40
2018-07-04T08:01:33.149Z,52.60
2018-07-04T08:04:26.683Z,51.80
2018-07-04T08:07:20.215Z,52.30
2018-07-04T08:10:13.703Z,52.40
2018-07-04T08:15:54.593Z,50.30
2018-07-04T08:18:48.139Z,52.60
2018-07-04T08:21:41.642Z,57.50
2018-07-04T08:24:35.177Z,60.70
2018-07-04T08:27:30.559Z,59.70
2018-07-04T08:30:24.127Z,62.40
2018-07-04T08:33:17.673Z,64.60
2018-07-04T08:36:11.372Z,48.50
2018-07-04T08:39:05.210Z,50.40
2018-07-04T08:41:58.856Z,47.00
2018-07-04T08:44:52.154Z,47.00
2018-07-04T08:47:45.526Z,43.80
2018-07-04T08:50:39.123Z,47.10
2018-07-04T08:53:32.640Z,45.50
2018-07-04T08:56:26.145Z,45.50
2018-07-04T08:59:19.379Z,45.10
2018-07-04T09:02:12.624Z,47.10
2018-07-04T09:05:06.264Z,41.40
2018-07-04T09:07:59.813Z,42.30
2018-07-04T09:10:53.143Z,43.90
2018-07-04T09:13:47.441Z,42.60
2018-07-04T09:16:40.959Z,46.10
2018-07-04T09:19:34.532Z,45.40
2018-07-04T09:22:27.954Z,44.30
2018-07-04T09:25:21.409Z,45.00
2018-07-04T09:28:14.796Z,43.30
2018-07-04T09:31:08.395Z,41.80
2018-07-04T09:34:01.709Z,42.80
2018-07-04T09:36:55.127Z,42.90
2018-07-04T09:39:48.513Z,41.10
2018-07-04T09:42:42.142Z,39.20
2018-07-04T09:45:35.513Z,38.80
2018-07-04T09:48:29.003Z,41.10
2018-07-04T09:51:22.636Z,42.50
2018-07-04T09:54:16.374Z,41.40
2018-07-04T09:57:09.814Z,41.80
2018-07-04T10:02:50.495Z,42.30
2018-07-04T10:05:44.118Z,45.20
2018-07-04T10:11:24.974Z,43.60
2018-07-04T10:14:19.621Z,41.60
2018-07-04T10:17:13.143Z,43.70
2018-07-04T10:20:06.538Z,40.80
2018-07-04T10:22:59.942Z,41.70
2018-07-04T10:25:53.492Z,43.10
2018-07-04T10:28:47.523Z,41.80
2018-07-04T10:31:41.328Z,43.60
2018-07-04T10:34:34.981Z,43.80
2018-07-04T10:37:28.437Z,42.00
2018-07-04T10:40:22.023Z,42.80
2018-07-04T10:43:15.270Z,43.00
2018-07-04T10:46:08.766Z,43.80
2018-07-04T10:49:02.293Z,42.60
2018-07-04T10:51:55.756Z,43.90
2018-07-04T10:54:49.137Z,44.00
2018-07-04T10:57:42.446Z,41.30
2018-07-04T11:00:35.773Z,43.50
2018-07-04T11:03:29.360Z,42.80
2018-07-04T11:06:22.649Z,43.40
2018-07-04T11:09:16.053Z,45.90
2018-07-04T11:12:09.607Z,46.50
2018-07-04T11:15:03.088Z,46.40
2018-07-04T11:20:46.166Z,41.20
2018-07-04T11:23:39.562Z,41.60
2018-07-04T11:26:33.256Z,41.70
2018-07-04T11:29:26.654Z,42.20
2018-07-04T11:32:20.038Z,41.50
2018-07-04T11:54:38.024Z,42.10
2018-07-04T11:57:23.460Z,41.30
2018-07-04T11:59:58.193Z,41.50
2018-07-04T12:02:32.728Z,41.40
2018-07-04T12:05:25.875Z,43.70
2018-07-04T12:08:00.448Z,43.20
2018-07-04T12:10:35.187Z,44.20
2018-07-04T12:13:09.826Z,42.70
2018-07-04T12:15:44.569Z,43.80
2018-07-04T12:18:19.272Z,42.80
2018-07-04T12:20:53.855Z,44.20
2018-07-04T12:23:28.447Z,43.20
2018-07-04T12:26:03.187Z,43.20
2018-07-04T12:28:37.781Z,43.90
2018-07-04T12:31:12.586Z,44.50
2018-07-04T12:33:47.578Z,45.20
2018-07-04T12:36:22.428Z,46.40
2018-07-04T12:38:57.135Z,47.10
2018-07-04T12:41:31.875Z,46.20
2018-07-04T12:44:06.437Z,44.50
2018-07-04T12:46:43.060Z,46.30
2018-07-04T12:49:21.803Z,44.50
2018-07-04T12:51:56.606Z,47.00
2018-07-04T12:54:37.218Z,43.80
2018-07-04T12:57:30.455Z,45.20
2018-07-04T13:00:23.684Z,44.00
2018-07-04T13:03:16.786Z,45.00
2018-07-04T13:06:09.970Z,46.90
2018-07-04T13:09:03.008Z,45.00
2018-07-04T13:11:56.391Z,45.80
2018-07-04T13:14:49.564Z,44.70
2018-07-04T13:17:42.777Z,44.10
2018-07-04T13:20:36.106Z,41.80
2018-07-04T13:23:30.060Z,43.40
2018-07-04T13:26:23.144Z,44.10
2018-07-04T13:29:16.260Z,45.30
2018-07-04T13:32:09.705Z,44.70
2018-07-04T13:35:02.916Z,45.10
2018-07-04T13:37:56.147Z,45.60
2018-07-04T13:40:53.130Z,46.40
2018-07-04T13:43:46.289Z,44.80
2018-07-04T13:46:39.491Z,46.10
2018-07-04T13:49:32.778Z,46.30
2018-07-04T13:52:25.959Z,46.30
2018-07-04T13:55:19.137Z,47.10
2018-07-04T13:58:12.307Z,46.40
2018-07-04T14:01:05.474Z,47.30
2018-07-04T14:03:58.924Z,47.60
2018-07-04T14:06:52.041Z,48.10
2018-07-04T14:09:45.536Z,48.90
2018-07-04T14:12:38.848Z,52.90
2018-07-04T14:15:32.076Z,52.90
2018-07-04T14:18:25.305Z,53.80
2018-07-04T14:21:18.374Z,54.60
2018-07-04T14:24:12.019Z,54.40
2018-07-04T14:30:01.919Z,55.60
2018-07-04T14:32:55.059Z,55.90
2018-07-04T14:35:48.591Z,56.10
2018-07-04T14:38:42.019Z,56.60
2018-07-04T14:41:35.449Z,55.90
2018-07-04T14:44:28.906Z,55.40
2018-07-04T14:47:22.274Z,55.40
2018-07-04T14:50:15.647Z,55.60
2018-07-04T14:53:08.967Z,55.90
2018-07-04T14:56:02.513Z,57.60
2018-07-04T14:58:55.698Z,58.30
2018-07-04T15:01:49.024Z,58.60
2018-07-04T15:04:42.362Z,59.40
2018-07-04T15:07:35.544Z,59.30
2018-07-04T15:10:28.938Z,60.10
2018-07-04T15:13:22.547Z,61.50
2018-07-04T15:16:15.770Z,61.70
2018-07-04T15:19:09.172Z,62.90
2018-07-04T15:22:02.443Z,63.30
2018-07-04T15:24:55.519Z,63.80
2018-07-04T15:27:49.051Z,64.40
2018-07-04T15:30:42.412Z,64.40
2018-07-04T15:33:35.842Z,64.70
2018-07-04T15:36:29.108Z,65.00
2018-07-04T15:39:22.218Z,65.10
2018-07-04T15:42:15.471Z,66.80
2018-07-04T15:45:08.816Z,66.60
2018-07-04T15:48:02.123Z,67.80
2018-07-04T15:50:55.331Z,68.40
2018-07-04T15:53:48.547Z,67.80
2018-07-04T15:56:42.142Z,68.90
2018-07-04T15:59:40.763Z,68.20
2018-07-04T16:02:40.203Z,68.50
2018-07-04T16:05:33.578Z,68.90
2018-07-04T16:08:27.096Z,69.00
2018-07-04T16:11:20.528Z,69.60
2018-07-04T16:14:13.716Z,69.50
2018-07-04T16:17:06.948Z,70.00
2018-07-04T16:20:00.270Z,71.20
2018-07-04T16:22:53.632Z,71.40
2018-07-04T16:25:46.816Z,72.30
2018-07-04T16:28:40.173Z,73.70
2018-07-04T16:31:33.503Z,73.80
2018-07-04T16:34:26.746Z,74.20
2018-07-04T16:37:20.056Z,74.50
2018-07-04T16:40:13.319Z,72.60
2018-07-04T16:43:06.809Z,72.30
2018-07-04T16:46:00.060Z,73.80
2018-07-04T16:48:53.304Z,74.10
2018-07-04T16:51:46.789Z,74.60
2018-07-04T16:54:40.367Z,74.60
2018-07-04T16:57:33.248Z,74.70
2018-07-04T17:00:26.366Z,74.80
2018-07-04T17:03:19.523Z,75.70
2018-07-04T17:06:13.314Z,75.20
2018-07-04T17:09:06.686Z,75.00
2018-07-04T17:12:00.293Z,76.20
2018-07-04T17:14:53.552Z,76.90
2018-07-04T17:17:46.945Z,76.80
2018-07-04T17:20:40.457Z,67.30
2018-07-04T17:23:33.579Z,70.00
2018-07-04T17:26:26.772Z,70.20
2018-07-04T17:29:20.060Z,70.80
2018-07-04T17:32:13.359Z,70.90
2018-07-04T17:35:06.704Z,71.10
2018-07-04T17:38:00.094Z,72.00
2018-07-04T17:40:53.205Z,71.60
2018-07-04T17:43:49.872Z,72.40
2018-07-04T17:46:43.255Z,72.90
2018-07-04T17:49:36.536Z,73.10
2018-07-04T17:52:29.740Z,73.30
2018-07-04T17:55:22.887Z,73.80
2018-07-04T17:58:16.046Z,74.10
2018-07-04T18:01:09.204Z,73.30
2018-07-04T18:04:02.489Z,73.50
2018-07-04T18:06:55.802Z,74.00
2018-07-04T18:09:48.914Z,73.40
2018-07-04T18:12:42.299Z,75.60
2018-07-04T18:15:35.564Z,75.90
2018-07-04T18:18:29.911Z,76.30
2018-07-04T18:21:24.075Z,78.20
2018-07-04T18:24:17.039Z,78.90
2018-07-04T18:27:10.464Z,79.30
2018-07-04T18:30:03.843Z,84.30
2018-07-04T18:41:18.806Z,49.80
2018-07-04T18:44:11.963Z,51.80
2018-07-04T18:47:05.258Z,51.40
2018-07-04T18:49:58.591Z,51.40
2018-07-04T18:52:52.083Z,51.90
2018-07-04T18:55:45.519Z,52.00
2018-07-04T18:58:38.885Z,52.70
2018-07-04T19:01:32.075Z,53.20
2018-07-04T19:04:25.627Z,53.30
2018-07-04T19:07:18.764Z,54.00
2018-07-04T19:10:12.003Z,53.60
2018-07-04T19:13:05.261Z,54.00
2018-07-04T19:15:58.595Z,53.80
2018-07-04T19:18:51.513Z,54.10
2018-07-04T19:21:44.675Z,54.10
2018-07-04T19:24:37.822Z,54.30
2018-07-04T19:27:31.202Z,54.40
2018-07-04T19:30:24.667Z,54.30
2018-07-04T19:33:17.821Z,54.70
2018-07-04T19:36:10.933Z,55.00
2018-07-04T19:39:05.021Z,55.30
2018-07-04T19:41:58.355Z,55.20
2018-07-04T19:44:52.072Z,55.60
2018-07-04T19:47:45.292Z,54.60
2018-07-04T19:50:38.949Z,55.30
2018-07-04T19:53:32.254Z,55.20
2018-07-04T19:56:25.359Z,56.30
2018-07-04T19:59:18.703Z,55.70
2018-07-04T20:02:11.842Z,57.10
2018-07-04T20:05:05.183Z,57.10
2018-07-04T20:07:58.700Z,56.90
2018-07-04T20:10:52.205Z,56.90
2018-07-04T20:13:45.523Z,57.00
2018-07-04T20:19:26.272Z,57.30
2018-07-04T20:22:19.500Z,57.80
2018-07-04T20:25:13.035Z,58.50
2018-07-04T20:28:06.262Z,58.20
2018-07-04T20:30:59.440Z,58.10
2018-07-04T20:33:52.895Z,57.70
2018-07-04T20:36:46.314Z,57.80
2018-07-04T20:39:39.670Z,57.10
2018-07-04T20:42:32.949Z,56.70
2018-07-04T20:45:26.492Z,56.20
2018-07-04T20:48:19.629Z,56.60
2018-07-04T20:51:12.942Z,57.00
2018-07-04T20:54:06.506Z,57.00
2018-07-04T20:56:59.742Z,57.40
2018-07-04T20:59:53.350Z,57.40
2018-07-04T21:02:46.618Z,57.60
2018-07-04T21:05:40.177Z,57.90
2018-07-04T21:08:33.520Z,57.80
2018-07-04T21:11:26.471Z,57.90
2018-07-04T21:14:19.880Z,58.10
2018-07-04T21:17:13.079Z,58.60
2018-07-04T21:20:06.675Z,58.60
2018-07-04T21:22:59.877Z,58.60
2018-07-04T21:25:53.080Z,58.70
2018-07-04T21:28:46.732Z,59.00
2018-07-04T21:31:39.929Z,59.00
2018-07-04T21:34:33.245Z,59.80
2018-07-04T21:37:26.800Z,59.80
2018-07-04T21:40:20.372Z,60.20
2018-07-04T21:43:13.635Z,60.30
2018-07-04T21:46:06.786Z,60.70
2018-07-04T21:49:00.035Z,60.80
2018-07-04T21:51:53.297Z,60.20
2018-07-04T21:54:46.532Z,60.00
2018-07-04T21:57:39.759Z,60.50
2018-07-04T22:00:33.283Z,60.10
2018-07-04T22:03:26.646Z,60.60
2018-07-04T22:06:19.809Z,61.20
2018-07-04T22:09:17.357Z,61.70
2018-07-04T22:12:10.656Z,61.50
2018-07-04T22:18:09.632Z,63.50
2018-07-04T22:21:02.933Z,63.40
2018-07-04T22:23:56.575Z,63.00
2018-07-04T22:26:50.140Z,65.00
2018-07-04T22:29:43.298Z,63.40
2018-07-04T22:32:36.539Z,63.80
2018-07-04T22:35:29.765Z,64.10
2018-07-04T22:38:23.279Z,64.80
2018-07-04T22:41:16.560Z,64.90
2018-07-04T22:44:09.911Z,63.70
2018-07-04T22:47:03.228Z,64.40
2018-07-04T22:49:56.497Z,64.50
2018-07-04T22:52:50.033Z,64.60
2018-07-04T22:55:43.391Z,65.30
2018-07-04T22:58:36.428Z,65.40
2018-07-04T23:01:29.553Z,66.10
2018-07-04T23:04:22.931Z,66.70
2018-07-04T23:07:16.316Z,67.00
2018-07-04T23:10:09.624Z,66.80
2018-07-04T23:13:03.043Z,65.90
2018-07-04T23:15:56.433Z,66.50
2018-07-04T23:18:49.766Z,67.30
2018-07-04T23:21:43.131Z,67.80
2018-07-04T23:24:36.358Z,68.70
2018-07-04T23:27:29.608Z,69.10
2018-07-04T23:30:22.947Z,69.50
2018-07-04T23:33:16.171Z,69.50
2018-07-04T23:36:09.385Z,69.20
2018-07-04T23:39:02.644Z,69.70
2018-07-04T23:41:55.987Z,70.20
2018-07-04T23:44:49.481Z,70.80
2018-07-04T23:47:42.878Z,71.60
2018-07-04T23:50:36.183Z,71.30
2018-07-04T23:53:29.702Z,70.50
2018-07-04T23:56:22.920Z,72.20
2018-07-04T23:59:16.174Z,73.00
